createdAt,value
2022-08-05T00:01:28.424Z,2.88
2022-08-05T00:03:57.262Z,2.70
2022-08-05T00:06:30.661Z,3.70
2022-08-05T00:09:00.943Z,2.88
2022-08-05T00:11:30.695Z,3.42
2022-08-05T00:14:12.970Z,3.15
2022-08-05T00:16:53.425Z,3.05
2022-08-05T00:19:22.166Z,2.97
2022-08-05T00:21:49.812Z,3.38
2022-08-05T00:24:19.183Z,2.50
2022-08-05T00:26:53.143Z,2.53
2022-08-05T00:29:25.499Z,3.03
2022-08-05T00:32:13.476Z,2.92
2022-08-05T00:34:55.263Z,2.97
2022-08-05T00:37:50.399Z,2.65
2022-08-05T00:40:17.866Z,2.72
2022-08-05T00:42:54.278Z,2.33
2022-08-05T00:45:28.220Z,2.63
2022-08-05T00:48:07.051Z,2.38
2022-08-05T00:50:35.002Z,2.65
2022-08-05T00:53:03.183Z,3.05
2022-08-05T00:55:42.865Z,2.80
2022-08-05T00:58:11.650Z,2.40
2022-08-05T01:00:42.078Z,2.60
2022-08-05T01:03:10.441Z,3.05
2022-08-05T01:05:49.890Z,2.80
2022-08-05T01:08:40.576Z,2.50
2022-08-05T01:11:08.018Z,2.20
2022-08-05T01:13:57.752Z,1.88
2022-08-05T01:16:30.123Z,2.80
2022-08-05T01:19:00.657Z,2.15
2022-08-05T01:21:50.617Z,2.15
2022-08-05T01:24:27.049Z,2.28
2022-08-05T01:27:00.943Z,2.40
2022-08-05T01:29:47.977Z,1.98
2022-08-05T01:32:18.745Z,2.00
2022-08-05T01:34:48.364Z,2.80
2022-08-05T01:37:24.452Z,2.10
2022-08-05T01:39:54.766Z,2.25
2022-08-05T01:42:27.649Z,2.17
2022-08-05T01:47:38.796Z,2.38
2022-08-05T01:50:09.221Z,2.33
2022-08-05T01:52:44.021Z,2.60
2022-08-05T01:55:13.774Z,2.53
2022-08-05T01:58:09.562Z,2.60
2022-08-05T02:00:40.724Z,2.38
2022-08-05T02:03:24.278Z,2.50
2022-08-05T02:05:57.902Z,2.40
2022-08-05T02:08:30.968Z,2.45
2022-08-05T02:11:00.956Z,2.65
2022-08-05T02:13:48.657Z,2.28
2022-08-05T02:16:22.238Z,2.40
2022-08-05T02:18:51.320Z,1.88
2022-08-05T02:21:22.895Z,2.13
2022-08-05T02:26:21.888Z,2.08
2022-08-05T02:28:50.142Z,2.13
2022-08-05T02:31:22.706Z,2.55
2022-08-05T02:33:57.184Z,2.15
2022-08-05T02:36:27.457Z,2.03
2022-08-05T02:38:59.162Z,2.15
2022-08-05T02:41:28.391Z,2.13
2022-08-05T02:44:11.298Z,1.92
2022-08-05T02:46:53.198Z,2.10
2022-08-05T02:49:35.709Z,1.88
2022-08-05T02:52:05.764Z,1.60
2022-08-05T02:54:36.959Z,2.40
2022-08-05T02:57:10.193Z,1.60
2022-08-05T02:59:54.074Z,1.53
2022-08-05T03:02:24.276Z,1.70
2022-08-05T03:04:56.001Z,1.83
2022-08-05T03:07:59.272Z,1.65
2022-08-05T03:10:13.402Z,1.90
2022-08-05T03:12:41.187Z,1.98
2022-08-05T03:15:09.494Z,2.75
2022-08-05T03:17:41.758Z,1.80
2022-08-05T03:22:36.644Z,1.63
2022-08-05T03:25:32.630Z,1.60
2022-08-05T03:27:59.118Z,1.60
2022-08-05T03:30:33.632Z,1.70
2022-08-05T03:33:03.753Z,1.40
2022-08-05T03:35:33.633Z,1.35
2022-08-05T03:38:02.532Z,1.30
2022-08-05T03:40:31.864Z,1.33
2022-08-05T03:42:59.556Z,1.50
2022-08-05T03:45:58.215Z,1.23
2022-08-05T03:48:29.078Z,1.40
2022-08-05T03:52:35.309Z,1.40
2022-08-05T03:55:49.702Z,1.13
2022-08-05T03:56:41.417Z,1.20
2022-08-05T03:59:10.750Z,1.40
2022-08-05T04:01:38.984Z,1.50
2022-08-05T04:04:09.446Z,1.60
2022-08-05T04:06:38.444Z,1.48
2022-08-05T04:09:15.745Z,1.60
2022-08-05T04:11:53.289Z,1.20
2022-08-05T04:14:29.444Z,1.38
2022-08-05T04:16:58.564Z,1.20
2022-08-05T04:19:27.376Z,1.20
2022-08-05T04:22:08.063Z,1.42
2022-08-05T04:24:39.026Z,1.48
2022-08-05T04:27:12.414Z,1.20
2022-08-05T04:29:39.922Z,1.30
2022-08-05T06:08:32.654Z,0.70
2022-08-05T06:13:27.887Z,0.80
2022-08-05T15:11:51.136Z,0.70
2022-08-05T16:27:46.880Z,0.60
2022-08-05T16:32:56.733Z,0.90
2022-08-05T16:35:27.614Z,0.90
2022-08-05T16:38:02.871Z,0.73
2022-08-05T17:05:54.071Z,0.90
2022-08-05T17:08:36.362Z,1.00
2022-08-05T17:11:16.467Z,0.60
2022-08-05T17:13:46.767Z,0.60
2022-08-05T17:29:16.745Z,0.70
2022-08-05T17:31:57.187Z,0.60
2022-08-05T17:36:57.699Z,0.73
2022-08-05T17:52:31.793Z,0.65
2022-08-05T17:54:59.260Z,0.50
2022-08-05T17:57:27.653Z,0.90
2022-08-05T18:00:03.563Z,0.70
2022-08-05T18:02:33.425Z,0.60
2022-08-05T18:05:07.575Z,0.60
2022-08-05T18:07:41.313Z,0.70
2022-08-05T18:10:10.983Z,0.80
2022-08-05T18:12:38.835Z,0.70
2022-08-05T18:15:08.700Z,0.73
2022-08-05T18:17:58.958Z,0.90
2022-08-05T18:20:29.653Z,0.70
2022-08-05T18:23:11.356Z,0.85
2022-08-05T18:25:39.876Z,0.57
2022-08-05T18:28:16.141Z,0.55
2022-08-05T18:30:44.157Z,0.40
2022-08-05T18:33:13.712Z,0.80
2022-08-05T18:35:59.770Z,0.60
2022-08-05T18:38:31.026Z,0.40
2022-08-05T18:41:54.250Z,0.70
2022-08-05T18:43:48.455Z,1.20
2022-08-05T18:46:20.231Z,0.90
2022-08-05T18:48:48.154Z,0.80
2022-08-05T18:52:03.179Z,0.90
2022-08-05T18:54:25.668Z,0.85
2022-08-05T18:56:53.058Z,0.75
2022-08-05T18:59:42.731Z,0.80
2022-08-05T19:02:27.203Z,0.77
2022-08-05T19:05:01.766Z,0.73
2022-08-05T19:07:46.087Z,0.70
2022-08-05T19:10:27.977Z,1.10
2022-08-05T19:12:56.383Z,0.70
2022-08-05T19:15:56.852Z,0.82
2022-08-05T19:18:20.704Z,0.90
2022-08-05T19:20:51.509Z,1.00
2022-08-05T19:24:03.905Z,0.98
2022-08-05T19:26:09.387Z,0.90
2022-08-05T19:28:41.523Z,0.93
2022-08-05T19:31:09.396Z,1.10
2022-08-05T19:33:48.367Z,0.98
2022-08-05T19:36:23.723Z,1.10
2022-08-05T19:38:51.087Z,1.35
2022-08-05T19:41:58.149Z,1.17
2022-08-05T19:44:13.091Z,1.00
2022-08-05T19:46:41.399Z,0.85
2022-08-05T19:49:12.561Z,0.68
2022-08-05T19:52:05.948Z,0.60
2022-08-05T19:54:32.693Z,0.80
2022-08-05T19:57:02.231Z,0.63
2022-08-05T19:59:59.533Z,1.23
2022-08-05T20:02:20.143Z,0.63
2022-08-05T20:04:49.472Z,0.88
2022-08-05T20:07:46.314Z,1.02
2022-08-05T20:10:13.851Z,0.77
2022-08-05T20:12:46.226Z,0.77
2022-08-05T20:15:48.156Z,0.85
2022-08-05T20:18:09.761Z,0.82
2022-08-05T20:20:38.712Z,1.20
2022-08-05T20:23:06.244Z,0.50
2022-08-05T20:25:40.147Z,0.60
2022-08-05T20:28:14.668Z,0.60
2022-08-05T20:30:42.210Z,0.70
2022-08-05T20:33:09.661Z,0.63
2022-08-05T20:35:40.666Z,0.77
2022-08-05T20:38:20.030Z,0.50
2022-08-05T20:40:55.366Z,0.55
2022-08-05T20:43:33.403Z,0.40
2022-08-05T20:46:18.494Z,0.80
2022-08-05T20:48:52.579Z,0.50
2022-08-05T20:51:22.221Z,0.40
2022-08-05T20:53:56.262Z,0.52
2022-08-05T20:56:29.824Z,0.50
2022-08-05T20:59:14.010Z,0.60
2022-08-05T21:01:46.572Z,0.50
2022-08-05T21:04:14.764Z,0.40
2022-08-05T21:06:45.191Z,0.38
2022-08-05T21:09:14.154Z,0.40
2022-08-05T21:12:10.519Z,0.43
2022-08-05T21:14:31.412Z,0.57
2022-08-05T21:17:05.411Z,0.60
2022-08-05T21:19:47.444Z,0.32
2022-08-05T21:22:21.940Z,0.38
2022-08-05T21:24:51.672Z,0.60
2022-08-05T21:27:20.657Z,0.65
2022-08-05T21:29:55.336Z,0.95
2022-08-05T21:32:23.108Z,0.60
2022-08-05T21:35:08.421Z,0.50
2022-08-05T21:37:42.688Z,0.40
2022-08-05T21:40:16.558Z,0.30
2022-08-05T21:42:45.418Z,0.45
2022-08-05T21:45:24.497Z,0.30
2022-08-05T21:50:24.766Z,0.20
2022-08-05T21:52:52.228Z,0.30
2022-08-05T21:56:01.061Z,0.57
2022-08-05T21:58:10.343Z,0.20
2022-08-05T22:00:51.022Z,0.52
2022-08-05T22:03:48.323Z,0.60
2022-08-05T22:06:06.744Z,0.50
2022-08-05T22:08:35.815Z,0.50
2022-08-05T22:11:06.789Z,0.30
2022-08-05T22:14:19.488Z,0.40
2022-08-05T22:16:41.376Z,0.40
2022-08-05T22:19:57.222Z,0.60
2022-08-05T22:21:59.057Z,0.35
2022-08-05T22:24:52.111Z,0.43
2022-08-05T22:28:08.538Z,0.40
2022-08-05T22:30:34.986Z,0.47
2022-08-05T22:33:04.502Z,0.30
2022-08-05T22:35:48.669Z,0.30
2022-08-05T22:38:16.802Z,0.38
2022-08-05T22:40:50.081Z,0.82
2022-08-05T22:43:37.066Z,0.20
2022-08-05T22:46:13.682Z,0.38
2022-08-05T22:48:52.255Z,0.32
2022-08-05T22:51:23.180Z,0.20
2022-08-05T22:54:07.447Z,0.30
2022-08-05T22:56:34.870Z,0.22
2022-08-05T22:59:46.248Z,0.25
2022-08-05T23:02:06.084Z,0.20
2022-08-05T23:04:36.707Z,0.22
2022-08-05T23:07:05.340Z,0.30
2022-08-05T23:09:57.579Z,0.25
2022-08-05T23:12:24.354Z,0.32
2022-08-05T23:14:52.063Z,0.38
2022-08-05T23:17:34.328Z,0.30
2022-08-05T23:20:10.404Z,0.20
2022-08-05T23:22:45.743Z,0.20
2022-08-05T23:25:17.164Z,0.20
2022-08-05T23:28:03.101Z,0.13
2022-08-05T23:30:39.754Z,0.30
2022-08-05T23:33:15.956Z,0.20
2022-08-05T23:35:50.981Z,0.60
2022-08-05T23:38:18.472Z,0.20
2022-08-05T23:40:50.078Z,0.32
2022-08-05T23:43:25.747Z,0.25
2022-08-05T23:46:05.411Z,0.20
2022-08-05T23:49:00.568Z,0.30
2022-08-05T23:51:53.349Z,0.38
2022-08-05T23:54:25.636Z,0.38
2022-08-05T23:56:54.008Z,0.50
2022-08-05T23:59:21.444Z,0.28
